WXM80 ListenWXM80 Stop

You find our weather info also at:

UK Metoffice

WeatherCloud

Weather Underground

Northeastern Weather Network

AWEKAS

Citizen Weather Observer Program (CWOP)

HAMweather, WeatherForYou, PWS Weather


Weather Underground History page Text

Daily Summary for December 1, 2016 Units:  English    Metric   Both
« Previous Day
Next Day »
Daily Weekly Monthly Yearly Custom
  High: Low: Average:
Temperature: 59.6 °F 44.0 °F 50.6 °F
Dew Point: 59.3 °F 32.7 °F 42 °F
Humidity: 99 % 59 % 73 %
Wind Speed: 11.5 mph 0.0 mph 5.9 mph
Wind Gust: 19.6 mph - -
Wind:- - WSW
Pressure: 29.78 in 29.40 in -
Precipitation: 0.04 in    
Historical Graphs
 
 
Tabular Data for December 1, 2016
Time Temperature Dew Point Pressure Wind Wind Speed Wind Gust Humidity Rainfall Rate (Hourly)
00:01 51.7 °F 51.2 °F 29.53 in East 3.6 mph 5.0 mph 98 % 0.02 in
00:07 51.8 °F 51.3 °F 29.52 in East 1.1 mph 2.3 mph 98 % 0.01 in
00:15 51.9 °F 51.6 °F 29.52 in East 1.7 mph 2.3 mph 99 % 0.01 in
00:57 52.2 °F 51.9 °F 29.49 in Calm     99 % 0.01 in
01:07 52.4 °F 52.1 °F 29.47 in Calm     99 % 0.02 in
01:33 54.9 °F 54.6 °F 29.44 in South 2.9 mph 5.8 mph 99 % 0.04 in
01:38 55.9 °F 55.6 °F 29.44 in SE 4.8 mph 6.9 mph 99 % 0.04 in
01:53 58.4 °F 58.1 °F 29.44 in South 9.8 mph 16.1 mph 99 % 0.03 in
02:03 58.8 °F 58.5 °F 29.44 in SSW 7.1 mph 10.4 mph 99 % 0.03 in
02:08 58.9 °F 58.6 °F 29.44 in SSW 7.5 mph 11.5 mph 99 % 0.02 in
02:13 59.0 °F 58.7 °F 29.42 in South 4.6 mph 11.5 mph 99 % 0.02 in
02:24 59.1 °F 58.8 °F 29.42 in WSW 6.6 mph 14.0 mph 99 % 0.00 in
02:29 59.2 °F 58.9 °F 29.41 in South 4.8 mph 8.0 mph 99 % 0.00 in
02:39 59.3 °F 59.0 °F 29.41 in SSW 6.3 mph 11.5 mph 99 % 0.00 in
02:54 59.6 °F 59.3 °F 29.40 in SSW 2.7 mph 5.8 mph 99 % 0.00 in
02:59 59.6 °F 59.3 °F 29.40 in SSW 1.9 mph 3.5 mph 99 % 0.00 in
03:04 59.5 °F 59.2 °F 29.41 in SSW 5.9 mph 13.8 mph 99 % 0.00 in
03:30 59.0 °F 58.7 °F 29.42 in SW 3.0 mph 12.0 mph 99 % 0.00 in
03:40 58.8 °F 58.5 °F 29.42 in SSW 4.2 mph 5.0 mph 99 % 0.00 in
03:45 58.7 °F 58.4 °F 29.42 in SW 5.0 mph 12.0 mph 99 % 0.00 in
03:50 58.7 °F 58.4 °F 29.42 in SW 5.0 mph 13.0 mph 99 % 0.00 in
04:05 58.7 °F 58.4 °F 29.41 in WSW 5.1 mph 6.9 mph 99 % 0.00 in
04:10 58.7 °F 58.4 °F 29.43 in WSW 6.6 mph 11.0 mph 99 % 0.00 in
04:15 58.7 °F 58.4 °F 29.42 in WNW 3.7 mph 8.1 mph 99 % 0.00 in
04:25 58.3 °F 58.0 °F 29.43 in WNW 9.7 mph 13.0 mph 99 % 0.00 in
04:30 57.9 °F 57.6 °F 29.44 in WSW 7.6 mph 12.7 mph 99 % 0.00 in
04:40 57.0 °F 56.4 °F 29.46 in WSW 8.3 mph 12.7 mph 98 % 0.00 in
04:46 56.5 °F 55.9 °F 29.46 in West 6.3 mph 11.0 mph 98 % 0.00 in
04:56 55.5 °F 54.9 °F 29.50 in WNW 4.5 mph 18.4 mph 98 % 0.00 in
05:01 54.9 °F 54.3 °F 29.49 in West 6.5 mph 10.4 mph 98 % 0.00 in
05:06 54.4 °F 53.8 °F 29.49 in WNW 4.5 mph 8.1 mph 98 % 0.00 in
05:11 54.0 °F 53.4 °F 29.49 in WSW 0.9 mph 3.0 mph 98 % 0.00 in
05:38 52.8 °F 52.0 °F 29.48 in WNW 2.0 mph 3.5 mph 97 % 0.00 in
05:43 52.6 °F 51.8 °F 29.49 in WSW 1.0 mph 4.6 mph 97 % 0.00 in
05:48 52.3 °F 51.5 °F 29.50 in WNW 5.8 mph 10.4 mph 97 % 0.00 in
05:49 52.3 °F 51.5 °F 29.50 in WNW 4.3 mph 10.4 mph 97 % 0.00 in
05:59 51.9 °F 51.1 °F 29.49 in West 1.9 mph 8.1 mph 97 % 0.00 in
06:19 51.2 °F 50.1 °F 29.52 in WSW 1.0 mph 3.5 mph 96 % 0.00 in
06:35 50.6 °F 49.5 °F 29.53 in WSW 4.0 mph 11.5 mph 96 % 0.00 in
06:45 50.4 °F 49.3 °F 29.53 in WSW 4.3 mph 10.4 mph 96 % 0.00 in
06:50 50.3 °F 49.2 °F 29.53 in WSW 2.0 mph 10.0 mph 96 % 0.00 in
07:05 50.0 °F 48.6 °F 29.54 in WSW 2.0 mph 12.0 mph 95 % 0.00 in
07:10 49.9 °F 48.5 °F 29.54 in WSW 3.0 mph 12.0 mph 95 % 0.00 in
07:35 50.0 °F 48.6 °F 29.55 in WSW 7.0 mph 13.0 mph 95 % 0.00 in
07:45 50.1 °F 48.7 °F 29.55 in WSW 5.7 mph 9.0 mph 95 % 0.00 in
07:50 50.2 °F 48.5 °F 29.56 in West 6.0 mph 8.0 mph 94 % 0.00 in
08:05 50.5 °F 48.8 °F 29.57 in WSW 5.0 mph 10.0 mph 94 % 0.00 in
08:10 50.6 °F 48.9 °F 29.57 in WSW 3.0 mph 8.0 mph 94 % 0.00 in
08:25 51.0 °F 48.8 °F 29.57 in SSW 2.1 mph 6.0 mph 92 % 0.00 in
08:30 51.2 °F 48.7 °F 29.57 in SSW 2.9 mph 8.1 mph 91 % 0.00 in
08:45 51.7 °F 48.9 °F 29.58 in West 4.5 mph 8.1 mph 90 % 0.00 in
08:56 52.1 °F 49.3 °F 29.58 in WNW 1.8 mph 9.2 mph 90 % 0.00 in
09:06 52.4 °F 48.0 °F 29.58 in WNW 5.9 mph 16.1 mph 85 % 0.00 in
09:16 52.8 °F 48.1 °F 29.58 in SSW 4.5 mph 6.9 mph 84 % 0.00 in
09:26 53.2 °F 47.8 °F 29.59 in West 8.3 mph 16.1 mph 82 % 0.00 in
09:31 53.3 °F 47.3 °F 29.59 in WSW 4.0 mph 11.5 mph 80 % 0.00 in
09:36 53.4 °F 47.0 °F 29.59 in WNW 4.7 mph 8.1 mph 79 % 0.00 in
09:42 53.5 °F 46.8 °F 29.59 in NW 7.0 mph 18.4 mph 78 % 0.00 in
09:52 53.7 °F 46.7 °F 29.60 in West 6.1 mph 8.1 mph 77 % 0.00 in
09:57 53.9 °F 46.5 °F 29.60 in SW 6.1 mph 11.5 mph 76 % 0.00 in
10:27 54.4 °F 45.6 °F 29.60 in WNW 5.2 mph 11.5 mph 72 % 0.00 in
10:38 54.6 °F 45.8 °F 29.60 in NW 5.2 mph 11.5 mph 72 % 0.00 in
10:48 54.6 °F 45.0 °F 29.59 in NW 5.5 mph 12.7 mph 70 % 0.00 in
10:58 54.2 °F 45.0 °F 29.59 in West 6.8 mph 11.5 mph 71 % 0.00 in
11:03 54.2 °F 45.4 °F 29.59 in West 6.3 mph 10.4 mph 72 % 0.00 in
11:08 54.1 °F 44.9 °F 29.59 in West 2.9 mph 6.9 mph 71 % 0.00 in
11:18 54.3 °F 45.1 °F 29.59 in WSW 7.3 mph 9.2 mph 71 % 0.00 in
11:34 54.6 °F 44.6 °F 29.58 in WNW 5.1 mph 10.4 mph 69 % 0.00 in
12:04 53.9 °F 44.0 °F 29.58 in WSW 5.1 mph 9.0 mph 69 % 0.00 in
12:09 53.9 °F 44.0 °F 29.58 in SW 5.3 mph 9.2 mph 69 % 0.00 in
12:15 53.9 °F 44.0 °F 29.58 in WSW 6.5 mph 10.4 mph 69 % 0.00 in
12:20 53.9 °F 44.3 °F 29.58 in WSW 3.8 mph 6.0 mph 70 % 0.00 in
12:25 54.0 °F 44.0 °F 29.58 in West 7.0 mph 16.0 mph 69 % 0.00 in
12:55 54.9 °F 42.5 °F 29.58 in West 7.0 mph 16.0 mph 63 % 0.00 in
13:20 55.1 °F 43.1 °F 29.59 in West 5.6 mph 9.2 mph 64 % 0.00 in
13:25 54.9 °F 42.1 °F 29.59 in West 5.6 mph 8.0 mph 62 % 0.00 in
13:46 54.2 °F 41.9 °F 29.59 in West 5.8 mph 12.0 mph 63 % 0.00 in
13:51 54.1 °F 42.6 °F 29.59 in WNW 4.3 mph 10.4 mph 65 % 0.00 in
14:01 53.8 °F 41.9 °F 29.59 in West 5.9 mph 11.5 mph 64 % 0.00 in
14:11 53.5 °F 41.6 °F 29.60 in WSW 6.1 mph 13.8 mph 64 % 0.00 in
14:16 53.3 °F 41.4 °F 29.60 in West 3.6 mph 7.0 mph 64 % 0.00 in
14:37 52.5 °F 40.3 °F 29.62 in WNW 6.7 mph 17.3 mph 63 % 0.00 in
14:42 52.2 °F 39.6 °F 29.62 in NW 8.8 mph 13.8 mph 62 % 0.00 in
14:52 51.6 °F 39.0 °F 29.62 in WSW 9.8 mph 16.1 mph 62 % 0.00 in
15:07 51.2 °F 39.0 °F 29.64 in NW 8.2 mph 11.5 mph 63 % 0.00 in
15:28 50.6 °F 37.6 °F 29.64 in West 6.4 mph 16.1 mph 61 % 0.00 in
15:33 50.5 °F 37.5 °F 29.64 in West 6.4 mph 12.7 mph 61 % 0.00 in
15:38 50.4 °F 37.4 °F 29.64 in WSW 10.2 mph 15.0 mph 61 % 0.00 in
15:53 50.1 °F 36.7 °F 29.65 in WSW 6.0 mph 11.5 mph 60 % 0.00 in
15:58 50.0 °F 37.5 °F 29.65 in WSW 4.8 mph 11.5 mph 62 % 0.00 in
16:03 49.9 °F 37.0 °F 29.65 in WSW 7.0 mph 16.1 mph 61 % 0.00 in
16:08 49.9 °F 37.4 °F 29.65 in WNW 5.7 mph 12.7 mph 62 % 0.00 in
16:13 49.8 °F 37.7 °F 29.66 in WSW 7.8 mph 12.0 mph 63 % 0.00 in
16:19 49.7 °F 37.2 °F 29.66 in WSW 9.7 mph 13.8 mph 62 % 0.00 in
16:24 49.6 °F 36.7 °F 29.66 in NW 6.4 mph 11.0 mph 61 % 0.00 in
16:29 49.4 °F 36.5 °F 29.67 in West 6.4 mph 15.0 mph 61 % 0.00 in
16:34 49.4 °F 36.1 °F 29.67 in WSW 10.2 mph 19.6 mph 60 % 0.00 in
16:39 49.4 °F 36.1 °F 29.67 in SW 6.5 mph 15.0 mph 60 % 0.00 in
16:44 49.3 °F 36.4 °F 29.67 in WSW 10.4 mph 19.6 mph 61 % 0.00 in
16:49 49.3 °F 36.4 °F 29.67 in WSW 6.5 mph 15.0 mph 61 % 0.00 in
16:54 49.3 °F 36.4 °F 29.68 in SW 8.1 mph 11.5 mph 61 % 0.00 in
16:59 49.2 °F 35.9 °F 29.68 in West 8.2 mph 13.8 mph 60 % 0.00 in
17:04 49.2 °F 36.3 °F 29.68 in West 8.2 mph 12.0 mph 61 % 0.00 in
17:10 49.2 °F 35.9 °F 29.68 in WNW 8.6 mph 11.5 mph 60 % 0.00 in
17:15 49.1 °F 36.2 °F 29.68 in WNW 8.5 mph 17.0 mph 61 % 0.00 in
17:20 49.1 °F 36.6 °F 29.69 in West 5.0 mph 15.0 mph 62 % 0.00 in
17:25 49.1 °F 36.6 °F 29.69 in West 8.0 mph 17.0 mph 62 % 0.00 in
17:30 49.0 °F 36.9 °F 29.69 in WSW 6.0 mph 15.0 mph 63 % 0.00 in
17:35 49.0 °F 36.5 °F 29.69 in West 7.0 mph 14.0 mph 62 % 0.00 in
17:40 49.0 °F 36.9 °F 29.69 in West 5.6 mph 11.5 mph 63 % 0.00 in
17:45 48.9 °F 36.4 °F 29.69 in West 6.0 mph 14.0 mph 62 % 0.00 in
17:50 48.9 °F 36.4 °F 29.69 in WSW 7.0 mph 12.0 mph 62 % 0.00 in
17:55 48.7 °F 35.8 °F 29.70 in West 7.2 mph 12.7 mph 61 % 0.00 in
18:00 48.6 °F 35.7 °F 29.70 in WNW 6.0 mph 13.8 mph 61 % 0.00 in
18:05 48.5 °F 35.2 °F 29.70 in West 9.0 mph 13.8 mph 60 % 0.00 in
18:10 48.5 °F 35.2 °F 29.70 in NW 6.2 mph 11.5 mph 60 % 0.00 in
18:15 48.6 °F 35.3 °F 29.71 in WNW 2.7 mph 6.9 mph 60 % 0.00 in
18:20 48.6 °F 35.3 °F 29.71 in WSW 5.2 mph 13.8 mph 60 % 0.00 in
18:25 48.6 °F 35.3 °F 29.71 in WSW 5.2 mph 15.0 mph 60 % 0.00 in
18:30 48.6 °F 35.3 °F 29.71 in WSW 5.3 mph 10.4 mph 60 % 0.00 in
18:35 48.6 °F 35.7 °F 29.72 in WSW 7.3 mph 12.7 mph 61 % 0.00 in
18:40 48.7 °F 35.4 °F 29.72 in WNW 6.6 mph 11.0 mph 60 % 0.00 in
18:45 48.7 °F 35.4 °F 29.72 in WSW 9.4 mph 11.5 mph 60 % 0.00 in
18:50 48.7 °F 35.0 °F 29.72 in WSW 8.0 mph 11.5 mph 59 % 0.00 in
18:56 48.7 °F 35.0 °F 29.72 in West 5.1 mph 11.5 mph 59 % 0.00 in
19:01 48.7 °F 35.4 °F 29.73 in WNW 8.3 mph 13.0 mph 60 % 0.00 in
19:06 48.7 °F 35.0 °F 29.73 in SW 5.7 mph 12.7 mph 59 % 0.00 in
19:11 48.6 °F 35.3 °F 29.73 in West 5.3 mph 11.5 mph 60 % 0.00 in
19:16 48.6 °F 36.2 °F 29.73 in WNW 7.5 mph 11.0 mph 62 % 0.00 in
19:21 48.5 °F 35.7 °F 29.73 in West 7.9 mph 11.5 mph 61 % 0.00 in
19:26 48.5 °F 35.2 °F 29.74 in WNW 6.5 mph 9.2 mph 60 % 0.00 in
19:31 48.4 °F 35.1 °F 29.73 in WSW 4.7 mph 10.0 mph 60 % 0.00 in
19:36 48.3 °F 35.0 °F 29.74 in WNW 8.0 mph 13.8 mph 60 % 0.00 in
19:41 48.2 °F 35.4 °F 29.74 in WSW 6.9 mph 12.0 mph 61 % 0.00 in
19:47 48.1 °F 34.9 °F 29.74 in WSW 6.5 mph 15.0 mph 60 % 0.00 in
19:52 48.0 °F 35.2 °F 29.74 in WNW 3.7 mph 6.9 mph 61 % 0.00 in
19:57 47.9 °F 35.1 °F 29.74 in West 3.9 mph 12.7 mph 61 % 0.00 in
20:02 47.7 °F 35.3 °F 29.74 in West 4.3 mph 6.9 mph 62 % 0.00 in
20:07 47.5 °F 35.1 °F 29.74 in WNW 6.2 mph 11.5 mph 62 % 0.00 in
20:13 47.3 °F 34.9 °F 29.74 in WSW 3.0 mph 11.5 mph 62 % 0.00 in
20:23 47.1 °F 35.1 °F 29.74 in WSW 2.1 mph 3.5 mph 63 % 0.00 in
20:28 47.0 °F 34.6 °F 29.74 in SW 7.9 mph 11.5 mph 62 % 0.00 in
20:33 46.9 °F 34.6 °F 29.74 in WSW 4.1 mph 9.2 mph 62 % 0.00 in
20:38 46.8 °F 34.9 °F 29.74 in SW 6.3 mph 10.4 mph 63 % 0.00 in
20:43 46.7 °F 35.2 °F 29.74 in SW 8.2 mph 13.8 mph 64 % 0.00 in
20:48 46.6 °F 34.7 °F 29.75 in WSW 4.2 mph 9.2 mph 63 % 0.00 in
20:53 46.5 °F 34.6 °F 29.75 in WSW 10.7 mph 13.8 mph 63 % 0.00 in
20:58 46.5 °F 34.2 °F 29.75 in WNW 7.2 mph 12.7 mph 62 % 0.00 in
21:04 46.4 °F 34.1 °F 29.75 in SW 8.1 mph 13.8 mph 62 % 0.00 in
21:09 46.3 °F 33.6 °F 29.75 in WNW 8.6 mph 16.1 mph 61 % 0.00 in
21:14 46.2 °F 33.1 °F 29.75 in SW 10.7 mph 13.8 mph 60 % 0.00 in
21:19 46.2 °F 33.5 °F 29.75 in WSW 7.7 mph 19.6 mph 61 % 0.00 in
21:24 46.1 °F 33.4 °F 29.75 in West 8.5 mph 12.7 mph 61 % 0.00 in
21:29 46.0 °F 33.7 °F 29.75 in West 7.2 mph 11.5 mph 62 % 0.00 in
21:34 45.9 °F 33.6 °F 29.75 in West 6.4 mph 11.5 mph 62 % 0.00 in
21:39 45.8 °F 33.5 °F 29.75 in West 5.0 mph 15.0 mph 62 % 0.00 in
21:44 45.7 °F 33.4 °F 29.75 in NW 7.5 mph 12.7 mph 62 % 0.00 in
21:49 45.6 °F 33.3 °F 29.76 in WNW 5.7 mph 12.7 mph 62 % 0.00 in
21:55 45.5 °F 33.2 °F 29.76 in SW 4.8 mph 13.8 mph 62 % 0.00 in
22:00 45.4 °F 33.5 °F 29.76 in WSW 7.9 mph 10.4 mph 63 % 0.00 in
22:05 45.3 °F 33.4 °F 29.77 in WSW 3.0 mph 17.0 mph 63 % 0.00 in
22:10 45.2 °F 33.8 °F 29.76 in West 7.0 mph 17.0 mph 64 % 0.00 in
22:15 45.2 °F 33.3 °F 29.77 in West 8.0 mph 10.4 mph 63 % 0.00 in
22:20 45.1 °F 33.2 °F 29.77 in West 8.0 mph 16.0 mph 63 % 0.00 in
22:25 45.1 °F 33.2 °F 29.77 in WSW 9.0 mph 18.0 mph 63 % 0.00 in
22:30 45.0 °F 33.2 °F 29.78 in SW 6.8 mph 10.4 mph 63 % 0.00 in
22:35 44.9 °F 33.1 °F 29.78 in West 6.0 mph 13.0 mph 63 % 0.00 in
22:40 44.9 °F 33.0 °F 29.77 in West 6.0 mph 14.0 mph 63 % 0.00 in
22:45 44.7 °F 32.9 °F 29.77 in WSW 7.6 mph 15.0 mph 63 % 0.00 in
22:50 44.6 °F 32.8 °F 29.77 in SW 5.6 mph 11.5 mph 63 % 0.00 in
22:55 44.6 °F 32.8 °F 29.78 in WNW 7.0 mph 11.5 mph 63 % 0.00 in
23:00 44.5 °F 33.1 °F 29.78 in West 5.7 mph 12.7 mph 64 % 0.00 in
23:05 44.5 °F 33.1 °F 29.78 in WNW 4.0 mph 8.1 mph 64 % 0.00 in
23:10 44.4 °F 33.4 °F 29.78 in West 8.8 mph 12.7 mph 65 % 0.00 in
23:15 44.3 °F 32.9 °F 29.78 in WSW 6.9 mph 10.4 mph 64 % 0.00 in
23:21 44.3 °F 32.9 °F 29.78 in NW 5.0 mph 9.2 mph 64 % 0.00 in
23:26 44.2 °F 33.2 °F 29.78 in West 8.3 mph 16.0 mph 65 % 0.00 in
23:31 44.2 °F 33.2 °F 29.78 in West 7.1 mph 16.1 mph 65 % 0.00 in
23:36 44.1 °F 32.7 °F 29.78 in West 11.5 mph 17.3 mph 64 % 0.00 in
23:41 44.1 °F 33.1 °F 29.78 in WSW 7.0 mph 11.5 mph 65 % 0.00 in
23:46 44.0 °F 33.0 °F 29.78 in WSW 4.9 mph 9.2 mph 65 % 0.00 in
23:51 44.0 °F 33.0 °F 29.78 in WSW 6.0 mph 12.7 mph 65 % 0.00 in
23:56 44.0 °F 33.0 °F 29.78 in West 5.5 mph 13.8 mph 65 % 0.00 in
Crab Meadow Weather
Compliments of Weather Underground - 2.25 mb

Script developed by  Jim McMurry - jmcmurry@mwt.net Adapted for the template by  Wim van der Kuil - Leuven-Template.eu

Weather Terms: Flood Watch - Conditions are favorable for flash flooding in and close to the watch area. These watches are issued by the Weather Forecast Office in Upton and are usually for the first 12 to 24 hours of a forecast.